createdAt,value
2018-07-23T00:01:21.551Z,16.27
2018-07-23T00:03:50.918Z,15.83
2018-07-23T00:06:19.684Z,13.50
2018-07-23T00:08:49.160Z,11.17
2018-07-23T00:11:17.836Z,17.40
2018-07-23T00:13:46.657Z,13.50
2018-07-23T00:16:22.683Z,12.47
2018-07-23T00:18:51.474Z,13.90
2018-07-23T00:21:20.256Z,13.03
2018-07-23T00:23:54.210Z,12.50
2018-07-23T00:26:22.959Z,13.30
2018-07-23T00:28:51.748Z,12.83
2018-07-23T00:31:20.641Z,14.97
2018-07-23T00:33:49.381Z,18.87
2018-07-23T00:36:18.394Z,20.32
2018-07-23T00:44:49.528Z,13.33
2018-07-23T00:47:18.235Z,13.83
2018-07-23T00:49:46.965Z,12.97
2018-07-23T00:52:15.745Z,19.97
2018-07-23T00:54:44.448Z,20.37
2018-07-23T00:57:13.565Z,14.17
2018-07-23T00:59:42.910Z,13.57
2018-07-23T01:02:11.843Z,12.70
2018-07-23T01:04:40.384Z,16.17
2018-07-23T01:07:09.614Z,14.70
2018-07-23T01:09:38.458Z,14.37
2018-07-23T01:12:07.419Z,13.50
2018-07-23T01:14:36.181Z,13.83
2018-07-23T01:17:05.463Z,18.03
2018-07-23T01:19:34.685Z,15.73
2018-07-23T01:22:03.334Z,15.17
2018-07-23T01:24:32.183Z,16.73
2018-07-23T01:27:01.078Z,18.90
2018-07-23T01:29:29.813Z,17.03
2018-07-23T01:31:58.550Z,14.63
2018-07-23T01:34:27.929Z,14.30
2018-07-23T01:36:56.944Z,14.68
2018-07-23T01:39:25.565Z,14.70
2018-07-23T01:41:54.690Z,15.90
2018-07-23T01:44:23.908Z,17.43
2018-07-23T01:46:52.870Z,15.93
2018-07-23T01:49:21.492Z,14.63
2018-07-23T01:51:50.239Z,20.70
2018-07-23T01:54:18.899Z,13.13
2018-07-23T01:56:47.560Z,12.90
2018-07-23T01:59:16.414Z,21.30
2018-07-23T02:01:45.565Z,13.62
2018-07-23T02:04:14.440Z,15.93
2018-07-23T02:06:43.100Z,13.17
2018-07-23T02:09:13.353Z,13.28
2018-07-23T02:11:42.500Z,14.07
2018-07-23T02:14:11.884Z,13.38
2018-07-23T02:16:41.895Z,12.57
2018-07-23T02:19:11.142Z,16.23
2018-07-23T02:21:40.040Z,11.73
2018-07-23T02:24:10.189Z,19.37
2018-07-23T02:26:39.744Z,12.73
2018-07-23T02:29:09.116Z,12.13
2018-07-23T02:31:38.209Z,12.47
2018-07-23T02:34:07.632Z,13.03
2018-07-23T02:36:36.379Z,12.23
2018-07-23T02:39:08.399Z,16.13
2018-07-23T02:41:37.161Z,13.50
2018-07-23T02:44:06.221Z,21.87
2018-07-23T02:46:35.463Z,14.47
2018-07-23T02:49:04.226Z,13.37
2018-07-23T02:51:33.007Z,15.10
2018-07-23T02:54:02.171Z,13.07
2018-07-23T02:56:30.844Z,13.13
2018-07-23T02:58:59.884Z,13.53
2018-07-23T03:01:28.829Z,14.37
2018-07-23T03:03:58.032Z,14.90
2018-07-23T03:06:28.645Z,13.33
2018-07-23T03:08:57.630Z,13.23
2018-07-23T03:11:26.816Z,13.87
2018-07-23T03:13:55.944Z,12.37
2018-07-23T03:16:24.860Z,12.47
2018-07-23T03:18:54.374Z,12.77
2018-07-23T03:21:23.274Z,18.20
2018-07-23T03:23:52.826Z,11.97
2018-07-23T03:26:21.569Z,13.53
2018-07-23T03:28:50.326Z,13.00
2018-07-23T03:31:19.820Z,12.60
2018-07-23T03:33:48.826Z,15.35
2018-07-23T03:36:17.592Z,12.97
2018-07-23T03:38:46.322Z,12.23
2018-07-23T03:41:15.125Z,12.93
2018-07-23T03:43:44.675Z,13.27
2018-07-23T03:46:13.667Z,16.50
2018-07-23T03:48:42.451Z,13.33
2018-07-23T03:51:11.319Z,16.67
2018-07-23T03:53:39.904Z,20.40
2018-07-23T03:56:08.747Z,16.53
2018-07-23T03:58:39.131Z,15.53
2018-07-23T04:01:07.886Z,13.67
2018-07-23T04:03:36.638Z,12.90
2018-07-23T04:06:05.371Z,17.60
2018-07-23T04:08:34.085Z,17.67
2018-07-23T04:11:02.776Z,19.40
2018-07-23T04:13:31.417Z,15.70
2018-07-23T04:16:00.276Z,24.70
2018-07-23T04:18:29.907Z,13.28
2018-07-23T04:20:58.754Z,18.80
2018-07-23T04:23:27.433Z,21.70
2018-07-23T04:25:56.380Z,17.27
2018-07-23T04:28:25.202Z,24.47
2018-07-23T04:30:54.056Z,20.00
2018-07-23T04:33:23.020Z,22.87
2018-07-23T04:35:51.685Z,20.10
2018-07-23T04:38:20.626Z,17.32
2018-07-23T04:40:49.681Z,20.50
2018-07-23T04:43:18.383Z,21.33
2018-07-23T04:45:47.140Z,24.10
2018-07-23T04:48:15.855Z,19.47
2018-07-23T04:50:44.974Z,22.33
2018-07-23T04:53:14.100Z,19.30
2018-07-23T04:55:42.885Z,22.93
2018-07-23T04:58:11.772Z,23.40
2018-07-23T05:00:41.401Z,19.93
2018-07-23T05:03:09.973Z,17.83
2018-07-23T05:05:39.314Z,20.93
2018-07-23T05:08:08.490Z,24.47
2018-07-23T05:10:37.434Z,22.70
2018-07-23T05:13:06.846Z,18.53
2018-07-23T05:15:35.639Z,18.83
2018-07-23T05:18:04.310Z,26.75
2018-07-23T05:20:33.130Z,27.63
2018-07-23T05:23:01.895Z,20.33
2018-07-23T05:25:30.710Z,20.40
2018-07-23T05:28:00.030Z,22.80
2018-07-23T05:30:28.811Z,20.73
2018-07-23T05:32:57.487Z,19.77
2018-07-23T05:35:26.275Z,22.30
2018-07-23T05:37:55.189Z,32.20
2018-07-23T05:40:23.996Z,27.20
2018-07-23T05:42:52.942Z,28.67
2018-07-23T05:45:21.607Z,23.50
2018-07-23T05:47:50.351Z,53.17
2018-07-23T05:50:19.069Z,29.27
2018-07-23T05:52:47.655Z,21.73
2018-07-23T05:55:16.414Z,28.10
2018-07-23T05:57:45.096Z,23.60
2018-07-23T06:00:14.565Z,22.87
2018-07-23T06:02:43.561Z,22.37
2018-07-23T06:05:12.592Z,21.97
2018-07-23T06:07:41.200Z,24.53
2018-07-23T06:10:09.935Z,28.27
2018-07-23T06:12:39.027Z,27.70
2018-07-23T06:15:08.921Z,21.30
2018-07-23T06:17:37.987Z,25.27
2018-07-23T06:20:08.030Z,29.73
2018-07-23T06:22:37.001Z,27.03
2018-07-23T06:25:06.925Z,21.47
2018-07-23T06:27:35.680Z,22.10
2018-07-23T06:30:05.419Z,21.37
2018-07-23T06:32:34.853Z,23.50
2018-07-23T06:35:03.522Z,19.73
2018-07-23T06:37:32.335Z,22.57
2018-07-23T06:40:01.015Z,20.57
2018-07-23T06:42:30.376Z,23.80
2018-07-23T06:44:59.625Z,21.87
2018-07-23T06:47:28.591Z,23.83
2018-07-23T06:49:58.092Z,26.03
2018-07-23T06:52:27.027Z,30.17
2018-07-23T06:54:55.802Z,30.25
2018-07-23T06:57:24.483Z,41.37
2018-07-23T06:59:53.352Z,32.97
2018-07-23T07:02:21.999Z,37.00
2018-07-23T07:04:50.976Z,29.27
2018-07-23T07:07:19.626Z,33.48
2018-07-23T07:09:48.497Z,32.17
2018-07-23T07:12:17.531Z,32.33
2018-07-23T07:14:46.407Z,34.30
2018-07-23T07:17:15.251Z,35.20
2018-07-23T07:19:44.085Z,32.50
2018-07-23T07:22:12.902Z,29.23
2018-07-23T07:24:42.534Z,30.07
2018-07-23T07:27:11.290Z,31.07
2018-07-23T07:29:40.179Z,34.00
2018-07-23T07:32:08.872Z,30.30
2018-07-23T07:34:37.533Z,34.43
2018-07-23T07:37:06.317Z,29.10
2018-07-23T07:39:35.342Z,28.20
2018-07-23T07:42:04.510Z,27.20
2018-07-23T07:44:33.777Z,26.33
2018-07-23T07:47:03.370Z,27.53
2018-07-23T07:49:33.214Z,24.67
2018-07-23T07:52:01.830Z,25.60
2018-07-23T07:54:30.797Z,25.00
2018-07-23T07:57:00.478Z,24.73
2018-07-23T07:59:29.152Z,30.20
2018-07-23T08:01:58.281Z,25.17
2018-07-23T08:04:27.118Z,25.43
2018-07-23T08:06:55.863Z,24.00
2018-07-23T08:09:25.468Z,25.13
2018-07-23T08:11:54.381Z,31.00
2018-07-23T08:14:23.584Z,23.87
2018-07-23T08:16:53.266Z,24.50
2018-07-23T08:19:22.008Z,22.67
2018-07-23T08:21:51.138Z,27.23
2018-07-23T08:24:20.032Z,22.60
2018-07-23T08:26:48.764Z,22.50
2018-07-23T08:29:17.593Z,19.27
2018-07-23T08:31:47.393Z,18.60
2018-07-23T08:34:16.011Z,17.20
2018-07-23T08:36:44.851Z,19.93
2018-07-23T08:39:13.474Z,17.53
2018-07-23T08:41:42.123Z,18.03
2018-07-23T08:44:11.244Z,16.40
2018-07-23T08:46:40.117Z,15.33
2018-07-23T08:49:08.932Z,18.07
2018-07-23T08:51:37.843Z,17.03
2018-07-23T08:54:06.601Z,14.87
2018-07-23T08:56:35.442Z,16.73
2018-07-23T08:59:04.287Z,17.57
2018-07-23T09:01:33.843Z,17.57
2018-07-23T09:04:02.656Z,17.60
2018-07-23T09:06:31.480Z,15.43
2018-07-23T09:09:00.571Z,16.43
2018-07-23T09:11:30.713Z,16.73
2018-07-23T09:13:59.757Z,16.03
2018-07-23T09:16:28.376Z,16.27
2018-07-23T09:18:57.358Z,16.30
2018-07-23T09:21:26.292Z,15.97
2018-07-23T09:23:55.942Z,15.17
2018-07-23T09:26:24.691Z,14.40
2018-07-23T09:28:53.332Z,14.03
2018-07-23T09:31:22.256Z,11.87
2018-07-23T09:33:51.811Z,10.55
2018-07-23T09:36:21.071Z,10.93
2018-07-23T09:38:50.837Z,9.25
2018-07-23T09:41:20.407Z,9.18
2018-07-23T09:43:49.281Z,9.15
2018-07-23T09:46:18.108Z,8.90
2018-07-23T09:48:47.012Z,7.55
2018-07-23T09:51:15.882Z,8.53
2018-07-23T09:53:44.587Z,7.10
2018-07-23T09:56:13.463Z,6.88
2018-07-23T09:58:42.266Z,6.17
2018-07-23T10:01:12.365Z,6.45
2018-07-23T10:03:42.062Z,6.28
2018-07-23T10:06:10.972Z,6.05
2018-07-23T10:08:39.930Z,5.85
2018-07-23T10:11:09.167Z,5.40
2018-07-23T10:13:38.616Z,5.80
2018-07-23T10:16:07.387Z,5.25
2018-07-23T10:18:36.077Z,5.15
2018-07-23T10:21:04.927Z,5.97
2018-07-23T10:23:34.351Z,6.40
2018-07-23T10:26:03.123Z,5.03
2018-07-23T10:28:31.968Z,5.33
2018-07-23T10:31:00.906Z,12.20
2018-07-23T10:33:30.059Z,4.37
2018-07-23T10:35:58.677Z,5.10
2018-07-23T10:38:27.615Z,5.42
2018-07-23T10:40:57.038Z,5.17
2018-07-23T10:43:25.770Z,5.30
2018-07-23T10:45:55.593Z,4.90
2018-07-23T10:48:24.553Z,6.25
2018-07-23T10:50:53.514Z,6.20
2018-07-23T10:53:22.196Z,7.20
2018-07-23T10:55:50.877Z,7.25
2018-07-23T10:58:19.757Z,7.28
2018-07-23T11:00:48.736Z,7.60
2018-07-23T11:03:18.185Z,7.63
2018-07-23T11:05:47.061Z,7.53
2018-07-23T11:08:15.711Z,9.73
2018-07-23T11:10:44.726Z,8.13
2018-07-23T11:13:13.931Z,8.73
2018-07-23T11:15:42.732Z,7.50
2018-07-23T11:18:11.539Z,7.33
2018-07-23T11:20:40.516Z,7.35
2018-07-23T11:23:09.464Z,7.33
2018-07-23T11:25:39.408Z,8.40
2018-07-23T11:28:07.299Z,7.43
2018-07-23T11:30:36.393Z,6.73
2018-07-23T11:33:05.579Z,10.93
2018-07-23T11:35:34.312Z,8.33
2018-07-23T11:38:03.093Z,8.17
2018-07-23T11:40:32.267Z,10.93
2018-07-23T11:43:01.923Z,8.03
2018-07-23T11:45:31.103Z,13.07
2018-07-23T11:48:00.142Z,7.80
2018-07-23T11:50:28.949Z,9.30
2018-07-23T11:52:57.699Z,8.50
2018-07-23T11:55:26.739Z,9.07
2018-07-23T11:57:55.459Z,9.23
2018-07-23T12:00:24.279Z,9.93
2018-07-23T12:02:54.438Z,8.40
2018-07-23T12:05:23.282Z,7.63
2018-07-23T12:07:52.223Z,7.17
2018-07-23T12:10:21.037Z,7.20
2018-07-23T12:12:50.554Z,7.77
2018-07-23T12:15:19.548Z,6.47
2018-07-23T12:17:48.527Z,7.57
2018-07-23T12:20:17.997Z,7.13
2018-07-23T12:22:48.192Z,6.97
2018-07-23T12:25:17.123Z,7.50
2018-07-23T12:27:45.891Z,10.23
2018-07-23T12:30:14.515Z,7.83
2018-07-23T12:32:44.022Z,7.60
2018-07-23T12:35:12.678Z,7.90
2018-07-23T12:37:41.618Z,10.07
2018-07-23T12:40:10.732Z,8.20
2018-07-23T12:42:39.555Z,7.73
2018-07-23T12:45:08.287Z,8.00
2018-07-23T12:47:37.564Z,8.43
2018-07-23T12:50:06.238Z,13.47
2018-07-23T12:52:34.936Z,8.30
2018-07-23T12:55:04.148Z,10.07
2018-07-23T12:57:32.784Z,7.40
2018-07-23T13:00:01.626Z,10.80
2018-07-23T13:02:30.279Z,8.30
2018-07-23T13:04:59.037Z,10.23
2018-07-23T13:07:28.690Z,8.70
2018-07-23T13:09:57.492Z,9.17
2018-07-23T13:12:26.140Z,7.73
2018-07-23T13:14:54.968Z,9.00
2018-07-23T13:17:24.298Z,10.20
2018-07-23T13:19:53.128Z,9.07
2018-07-23T13:22:21.766Z,8.70
2018-07-23T13:24:50.533Z,7.40
2018-07-23T13:27:19.143Z,8.17
2018-07-23T13:29:47.951Z,7.20
2018-07-23T13:32:16.548Z,7.27
2018-07-23T13:34:45.368Z,8.08
2018-07-23T13:37:14.074Z,7.83
2018-07-23T13:39:42.687Z,6.80
2018-07-23T13:42:11.493Z,7.90
2018-07-23T13:44:41.115Z,7.20
2018-07-23T13:47:09.959Z,9.47
2018-07-23T13:49:39.294Z,9.73
2018-07-23T13:52:08.475Z,9.50
2018-07-23T13:54:37.240Z,16.73
2018-07-23T13:57:05.982Z,10.50
2018-07-23T13:59:35.077Z,11.97
2018-07-23T14:02:04.430Z,9.47
2018-07-23T14:04:33.813Z,8.67
2018-07-23T14:07:02.794Z,8.93
2018-07-23T14:09:31.508Z,10.37
2018-07-23T14:12:00.195Z,8.90
2018-07-23T14:14:28.916Z,8.97
2018-07-23T14:16:57.722Z,9.40
2018-07-23T14:19:26.492Z,8.30
2018-07-23T14:21:55.620Z,8.93
2018-07-23T14:24:24.405Z,10.73
2018-07-23T14:26:53.038Z,8.33
2018-07-23T14:29:21.930Z,8.00
2018-07-23T14:31:50.545Z,10.90
2018-07-23T14:34:19.773Z,12.23
2018-07-23T14:36:48.569Z,8.00
2018-07-23T14:39:17.368Z,8.17
2018-07-23T14:41:46.019Z,7.93
2018-07-23T14:44:14.772Z,8.60
2018-07-23T14:46:43.484Z,11.80
2018-07-23T14:49:12.763Z,7.60
2018-07-23T14:51:41.514Z,9.30
2018-07-23T14:54:10.209Z,8.13
2018-07-23T14:56:38.853Z,8.30
2018-07-23T14:59:07.544Z,9.20
2018-07-23T15:01:36.303Z,9.93
2018-07-23T15:04:05.089Z,8.45
2018-07-23T15:06:33.813Z,8.07
2018-07-23T15:09:02.437Z,8.23
2018-07-23T15:11:31.024Z,8.77
2018-07-23T15:13:59.959Z,8.77
2018-07-23T15:16:29.305Z,11.40
2018-07-23T15:18:57.989Z,9.20
2018-07-23T15:21:26.689Z,9.33
2018-07-23T15:23:55.327Z,9.50
2018-07-23T15:26:24.145Z,8.53
2018-07-23T15:28:53.049Z,8.80
2018-07-23T15:31:21.919Z,8.10
2018-07-23T15:33:50.964Z,8.70
2018-07-23T15:36:19.766Z,9.10
2018-07-23T15:38:49.138Z,11.33
2018-07-23T15:41:17.811Z,15.40
2018-07-23T15:43:46.674Z,9.50
2018-07-23T15:46:15.761Z,11.05
2018-07-23T15:48:45.026Z,7.77
2018-07-23T15:51:13.651Z,8.90
2018-07-23T15:53:42.953Z,8.70
2018-07-23T15:56:11.679Z,16.30
2018-07-23T15:58:40.448Z,9.27
2018-07-23T16:01:09.453Z,9.73
2018-07-23T16:03:38.109Z,8.97
2018-07-23T16:06:06.890Z,11.23
2018-07-23T16:08:35.545Z,9.43
2018-07-23T16:11:04.344Z,11.17
2018-07-23T16:13:33.235Z,15.67
2018-07-23T16:16:02.960Z,12.95
2018-07-23T16:18:31.746Z,9.10
2018-07-23T16:21:01.511Z,9.67
2018-07-23T16:23:30.447Z,10.60
2018-07-23T16:25:59.890Z,18.33
2018-07-23T16:28:28.652Z,12.23
2018-07-23T16:30:57.303Z,15.93
2018-07-23T16:33:26.075Z,10.13
2018-07-23T16:35:54.853Z,10.80
2018-07-23T16:38:23.855Z,9.90
2018-07-23T16:40:53.361Z,8.97
2018-07-23T16:43:22.393Z,8.83
2018-07-23T16:45:57.697Z,9.17
2018-07-23T16:48:26.624Z,10.27
2018-07-23T16:50:55.977Z,9.50
2018-07-23T16:53:25.293Z,9.30
2018-07-23T16:55:53.919Z,9.30
2018-07-23T16:58:22.534Z,9.77
2018-07-23T17:00:51.322Z,13.30
2018-07-23T17:03:20.326Z,12.73
2018-07-23T17:05:49.478Z,9.07
2018-07-23T17:08:18.500Z,15.72
2018-07-23T17:10:47.405Z,9.60
2018-07-23T17:13:16.235Z,10.00
2018-07-23T17:15:45.204Z,12.80
2018-07-23T17:18:13.998Z,11.67
2018-07-23T17:20:42.635Z,9.20
2018-07-23T17:23:11.230Z,10.40
2018-07-23T17:25:40.035Z,10.17
2018-07-23T17:28:09.498Z,9.80
2018-07-23T17:30:39.551Z,10.97
2018-07-23T17:33:08.994Z,10.10
2018-07-23T17:35:37.700Z,11.10
2018-07-23T17:38:06.331Z,11.60
2018-07-23T17:40:34.934Z,9.30
2018-07-23T17:43:03.633Z,10.10
2018-07-23T17:45:32.480Z,10.72
2018-07-23T17:48:01.973Z,18.47
2018-07-23T17:50:31.385Z,18.00
2018-07-23T17:53:00.979Z,11.43
2018-07-23T17:55:29.735Z,12.20
2018-07-23T17:57:58.805Z,16.10
2018-07-23T18:00:27.750Z,10.00
2018-07-23T18:02:56.420Z,12.77
2018-07-23T18:05:26.021Z,11.43
2018-07-23T18:07:54.833Z,10.87
2018-07-23T18:10:23.445Z,14.47
2018-07-23T18:12:52.335Z,10.93
2018-07-23T18:15:21.240Z,11.47
2018-07-23T18:17:49.931Z,12.00
2018-07-23T18:20:18.904Z,16.13
2018-07-23T18:22:47.660Z,28.83
2018-07-23T18:25:16.456Z,11.27
2018-07-23T18:27:45.931Z,12.55
2018-07-23T18:30:14.978Z,17.47
2018-07-23T18:32:43.833Z,14.10
2018-07-23T18:35:12.656Z,12.30
2018-07-23T18:37:41.782Z,12.83
2018-07-23T18:40:10.831Z,13.30
2018-07-23T18:42:40.417Z,14.17
2018-07-23T18:45:09.456Z,14.60
2018-07-23T18:47:38.539Z,14.30
2018-07-23T18:50:07.810Z,13.07
2018-07-23T18:52:36.925Z,13.18
2018-07-23T18:55:06.165Z,12.93
2018-07-23T18:57:35.346Z,13.50
2018-07-23T19:00:04.403Z,14.98
2018-07-23T19:02:33.106Z,17.90
2018-07-23T19:05:02.660Z,15.80
2018-07-23T19:07:32.379Z,12.97
2018-07-23T19:10:01.778Z,14.33
2018-07-23T19:12:30.571Z,15.23
2018-07-23T19:15:00.129Z,14.47
2018-07-23T19:17:29.494Z,14.63
2018-07-23T19:19:58.265Z,15.10
2018-07-23T19:22:26.979Z,18.13
2018-07-23T19:24:55.666Z,16.07
2018-07-23T19:27:24.340Z,18.87
2018-07-23T19:29:53.315Z,16.30
2018-07-23T19:32:22.922Z,17.60
2018-07-23T19:34:51.474Z,15.07
2018-07-23T19:37:20.127Z,15.60
2018-07-23T19:39:48.787Z,20.53
2018-07-23T19:42:17.532Z,16.07
2018-07-23T19:44:46.114Z,14.70
2018-07-23T19:47:14.736Z,19.33
2018-07-23T19:49:43.375Z,18.33
2018-07-23T19:52:12.119Z,15.90
2018-07-23T19:54:40.915Z,16.47
2018-07-23T19:57:09.870Z,16.17
2018-07-23T19:59:38.474Z,17.67
2018-07-23T20:02:07.384Z,15.95
2018-07-23T20:04:36.027Z,17.50
2018-07-23T20:07:05.380Z,16.43
2018-07-23T20:09:34.129Z,18.23
2018-07-23T20:12:03.335Z,18.53
2018-07-23T20:14:32.411Z,19.83
2018-07-23T20:17:01.517Z,17.00
2018-07-23T20:19:30.170Z,17.47
2018-07-23T20:21:58.930Z,22.60
2018-07-23T20:24:27.607Z,18.50
2018-07-23T20:26:56.368Z,17.77
2018-07-23T20:29:25.021Z,20.13
2018-07-23T20:31:54.656Z,18.00
2018-07-23T20:34:23.432Z,16.83
2018-07-23T20:36:52.665Z,17.57
2018-07-23T20:39:21.489Z,20.83
2018-07-23T20:41:50.264Z,17.83
2018-07-23T20:44:19.181Z,17.00
2018-07-23T20:46:47.781Z,17.90
2018-07-23T20:49:16.410Z,16.67
2018-07-23T20:51:45.696Z,18.97
2018-07-23T20:54:14.616Z,16.30
2018-07-23T20:56:43.451Z,17.60
2018-07-23T20:59:12.047Z,22.87
2018-07-23T21:01:40.802Z,17.77
2018-07-23T21:04:09.598Z,18.00
2018-07-23T21:06:38.371Z,17.93
2018-07-23T21:09:08.370Z,19.97
2018-07-23T21:11:37.301Z,19.83
2018-07-23T21:14:06.245Z,18.00
2018-07-23T21:16:35.334Z,24.23
2018-07-23T21:19:04.956Z,22.03
2018-07-23T21:21:33.901Z,18.73
2018-07-23T21:24:02.997Z,23.90
2018-07-23T21:26:31.750Z,19.63
2018-07-23T21:29:00.451Z,20.40
2018-07-23T21:31:29.300Z,19.67
2018-07-23T21:33:57.961Z,19.67
2018-07-23T21:36:26.954Z,19.23
2018-07-23T21:38:55.617Z,19.20
2018-07-23T21:41:24.513Z,17.92
2018-07-23T21:43:53.160Z,19.97
2018-07-23T21:46:22.185Z,19.67
2018-07-23T21:48:50.784Z,20.40
2018-07-23T21:51:19.456Z,20.40
2018-07-23T21:53:48.041Z,18.87
2018-07-23T21:56:16.756Z,48.50
2018-07-23T21:58:45.321Z,22.53
2018-07-23T22:01:14.093Z,19.10
2018-07-23T22:03:43.651Z,18.83
2018-07-23T22:06:13.028Z,19.63
2018-07-23T22:08:41.733Z,20.37
2018-07-23T22:11:10.420Z,20.50
2018-07-23T22:13:39.034Z,19.67
2018-07-23T22:16:07.927Z,18.80
2018-07-23T22:18:36.695Z,18.02
2018-07-23T22:21:06.592Z,19.50
2018-07-23T22:23:35.331Z,20.23
2018-07-23T22:26:04.635Z,20.67
2018-07-23T22:28:37.859Z,23.33
2018-07-23T22:31:07.057Z,22.47
2018-07-23T22:33:35.960Z,22.20
2018-07-23T22:36:04.782Z,20.40
2018-07-23T22:38:33.657Z,19.90
2018-07-23T22:41:03.396Z,20.33
2018-07-23T22:43:32.248Z,21.70
2018-07-23T22:46:01.500Z,18.50
2018-07-23T22:48:30.180Z,20.32
2018-07-23T22:50:58.876Z,20.70
2018-07-23T22:53:27.776Z,19.15
2018-07-23T22:55:56.535Z,20.97
2018-07-23T22:58:25.384Z,20.90
2018-07-23T23:00:54.156Z,20.70
2018-07-23T23:03:23.159Z,19.40
2018-07-23T23:05:51.856Z,24.40
2018-07-23T23:08:21.501Z,19.70
2018-07-23T23:10:50.499Z,20.57
2018-07-23T23:13:19.320Z,19.87
2018-07-23T23:15:48.172Z,20.25
2018-07-23T23:18:17.045Z,21.33
2018-07-23T23:20:45.703Z,22.40
2018-07-23T23:23:14.783Z,21.20
2018-07-23T23:25:43.597Z,23.03
2018-07-23T23:28:12.486Z,19.10
2018-07-23T23:30:41.464Z,21.43
2018-07-23T23:33:10.184Z,24.03
2018-07-23T23:35:39.006Z,20.23
2018-07-23T23:38:08.190Z,20.77
2018-07-23T23:40:37.670Z,20.40
2018-07-23T23:43:06.737Z,21.87
2018-07-23T23:45:35.526Z,20.87
2018-07-23T23:48:04.179Z,21.90
2018-07-23T23:50:32.744Z,19.93
2018-07-23T23:53:01.299Z,23.63
2018-07-23T23:55:29.872Z,22.50
2018-07-23T23:57:58.422Z,22.40
